Time;durP1;ratioP1;P1;durP2;ratioP2;P2;SDS_P1;SDS_P2;PMS_P1;PMS_P2;Temp;Humidity;BMP_temperature;BMP_pressure;BME280_temperature;BME280_humidity;BME280_pressure;Samples;Min_cycle;Max_cycle;Signal;HPM_P1;HPM_P2
2021/03/22 00:00:22;;;;;;;4.03;1.67;;;4.80;99.90;;;;;;5061297;28;20223;-86
2021/03/22 00:02:49;;;;;;;1.50;1.40;;;4.60;99.90;;;;;;5061418;28;20207;-87
2021/03/22 00:05:15;;;;;;;3.92;1.30;;;4.60;99.90;;;;;;5061556;28;20203;-87
2021/03/22 00:07:44;;;;;;;1.25;1.08;;;4.80;99.90;;;;;;5061397;28;20222;-86
2021/03/22 00:10:11;;;;;;;3.47;1.30;;;4.50;99.90;;;;;;5063442;28;20207;-86
2021/03/22 00:12:38;;;;;;;1.60;1.23;;;4.50;99.90;;;;;;5063474;28;20522;-87
2021/03/22 00:15:05;;;;;;;1.30;1.20;;;4.40;99.90;;;;;;5060482;28;20203;-87
2021/03/22 00:17:33;;;;;;;4.85;1.92;;;4.50;99.90;;;;;;5060930;28;20238;-86
2021/03/22 00:19:59;;;;;;;3.83;2.22;;;4.50;99.90;;;;;;5061033;28;20223;-87
2021/03/22 00:22:25;;;;;;;4.45;1.40;;;4.40;99.90;;;;;;5062145;28;20662;-87
2021/03/22 00:24:51;;;;;;;7.43;1.60;;;4.40;99.90;;;;;;5062309;28;20229;-87
2021/03/22 00:27:17;;;;;;;1.23;1.13;;;4.40;99.90;;;;;;5061249;28;20326;-87
2021/03/22 00:29:43;;;;;;;1.30;1.20;;;4.30;99.90;;;;;;5061345;28;20210;-86
2021/03/22 00:32:10;;;;;;;5.60;1.80;;;4.30;99.90;;;;;;5061475;28;20606;-87
2021/03/22 00:34:37;;;;;;;3.92;2.40;;;4.20;99.90;;;;;;5060437;28;20202;-87
2021/03/22 00:37:03;;;;;;;2.33;1.80;;;4.10;99.90;;;;;;5062748;28;20272;-87
2021/03/22 00:39:30;;;;;;;2.80;2.15;;;4.10;99.90;;;;;;5060978;28;20195;-86
2021/03/22 00:41:56;;;;;;;2.38;2.17;;;3.90;99.90;;;;;;5068021;28;20202;-87
2021/03/22 00:44:22;;;;;;;1.85;1.75;;;3.90;99.90;;;;;;5065196;28;20670;-87
2021/03/22 00:46:48;;;;;;;2.53;1.52;;;3.60;99.90;;;;;;5063836;28;20602;-86
2021/03/22 00:49:14;;;;;;;5.53;2.00;;;3.80;99.90;;;;;;5068588;28;20206;-87
2021/03/22 00:51:41;;;;;;;2.63;2.42;;;3.80;99.90;;;;;;5068151;28;20260;-87
2021/03/22 00:54:07;;;;;;;4.05;2.30;;;3.70;99.90;;;;;;5062306;28;20211;-86
2021/03/22 00:56:33;;;;;;;2.40;1.75;;;3.70;99.90;;;;;;5061605;28;20206;-87
2021/03/22 00:59:00;;;;;;;4.40;1.95;;;3.70;99.90;;;;;;5059484;28;20203;-87
2021/03/22 01:01:26;;;;;;;3.05;1.50;;;3.70;99.90;;;;;;5060276;28;20219;-87
2021/03/22 01:03:52;;;;;;;6.05;3.63;;;3.70;99.90;;;;;;5067591;28;20199;-86
2021/03/22 01:06:18;;;;;;;4.30;3.20;;;3.70;99.90;;;;;;5076867;28;20203;-87
2021/03/22 01:08:45;;;;;;;4.35;3.22;;;3.70;99.90;;;;;;5064356;28;20223;-88
2021/03/22 01:11:13;;;;;;;6.00;3.00;;;3.70;99.90;;;;;;5060477;28;20203;-87
2021/03/22 01:13:42;;;;;;;2.95;2.40;;;3.60;99.90;;;;;;5075685;28;20210;-87
2021/03/22 01:16:10;;;;;;;2.92;2.53;;;3.50;99.90;;;;;;5070979;28;20233;-87
2021/03/22 01:18:38;;;;;;;3.13;2.92;;;3.40;99.90;;;;;;5060164;28;20235;-87
2021/03/22 01:21:08;;;;;;;4.45;2.65;;;3.40;99.90;;;;;;5066523;28;20223;-87
2021/03/22 01:23:35;;;;;;;3.65;2.72;;;3.40;99.90;;;;;;5075450;28;20210;-86
2021/03/22 01:26:05;;;;;;;2.72;2.25;;;3.40;99.90;;;;;;5061982;28;20203;-87
2021/03/22 01:28:31;;;;;;;5.45;2.35;;;3.40;99.90;;;;;;5070726;28;20226;-86
2021/03/22 01:30:59;;;;;;;3.42;2.03;;;3.40;99.90;;;;;;5076980;28;20222;-86
2021/03/22 01:33:28;;;;;;;2.13;1.92;;;3.40;99.90;;;;;;5075524;28;20191;-87
2021/03/22 01:35:58;;;;;;;3.65;2.67;;;3.30;99.90;;;;;;5072779;28;20207;-87
2021/03/22 01:38:24;;;;;;;1.60;1.50;;;3.30;99.90;;;;;;5062572;28;20298;-87
2021/03/22 01:41:15;;;;;;;3.13;1.90;;;3.20;99.90;;;;;;5059686;28;20277;-86
2021/03/22 01:44:02;;;;;;;4.75;1.90;;;3.30;99.90;;;;;;5058133;28;20183;-86
2021/03/22 01:46:31;;;;;;;5.43;2.03;;;3.20;99.90;;;;;;5057676;28;20641;-85
2021/03/22 01:48:57;;;;;;;3.22;1.70;;;3.20;99.90;;;;;;5058394;28;20231;-86
2021/03/22 01:51:24;;;;;;;3.95;2.25;;;3.20;99.90;;;;;;5056075;28;20252;-86
2021/03/22 01:53:50;;;;;;;3.40;1.95;;;3.10;99.90;;;;;;5057095;28;20665;-86
2021/03/22 01:56:29;;;;;;;2.17;2.08;;;3.20;99.90;;;;;;5060085;28;20743;-86
2021/03/22 01:58:56;;;;;;;7.18;2.30;;;3.30;99.90;;;;;;5060357;28;20223;-86
2021/03/22 02:01:25;;;;;;;3.20;2.20;;;3.30;99.90;;;;;;5058074;28;20238;-87
2021/03/22 02:03:51;;;;;;;2.55;2.22;;;3.20;99.90;;;;;;5060147;28;20222;-87
2021/03/22 02:06:17;;;;;;;4.18;2.00;;;3.20;99.90;;;;;;5059790;28;20249;-86
2021/03/22 02:08:46;;;;;;;3.08;1.58;;;3.30;99.90;;;;;;5058660;28;20333;-86
2021/03/22 02:11:17;;;;;;;2.13;1.98;;;3.30;99.90;;;;;;5057846;28;20237;-86
2021/03/22 02:13:45;;;;;;;5.20;2.30;;;3.20;99.90;;;;;;5058798;28;20282;-87
2021/03/22 02:16:15;;;;;;;3.30;1.92;;;3.30;99.90;;;;;;5058200;28;20241;-86
2021/03/22 02:18:54;;;;;;;6.55;2.35;;;3.30;99.90;;;;;;5070894;28;20234;-87
2021/03/22 02:21:42;;;;;;;5.05;1.80;;;3.20;99.90;;;;;;5077551;28;20568;-86
2021/03/22 02:24:36;;;;;;;2.45;2.00;;;3.20;99.90;;;;;;5077912;28;20175;-86
2021/03/22 02:27:25;;;;;;;6.13;2.25;;;3.10;99.90;;;;;;5071767;28;20209;-86
2021/03/22 02:30:08;;;;;;;6.38;2.42;;;3.10;99.90;;;;;;5068000;28;20206;-86
2021/03/22 02:32:58;;;;;;;4.10;2.45;;;3.10;99.90;;;;;;5071656;28;20187;-86
2021/03/22 02:35:30;;;;;;;3.80;2.40;;;2.90;99.90;;;;;;5071332;28;20191;-87
2021/03/22 02:38:01;;;;;;;5.03;2.30;;;3.00;99.90;;;;;;5078700;28;20222;-86
2021/03/22 02:40:33;;;;;;;3.92;2.25;;;3.10;99.90;;;;;;5072033;28;20214;-86
2021/03/22 02:43:00;;;;;;;4.85;2.55;;;3.10;99.90;;;;;;5080759;28;20187;-86
2021/03/22 02:45:31;;;;;;;7.80;2.15;;;3.10;99.90;;;;;;5079657;28;20203;-87
2021/03/22 02:47:58;;;;;;;6.40;2.65;;;3.10;99.90;;;;;;5078018;28;20230;-86
2021/03/22 02:50:29;;;;;;;2.40;1.88;;;3.00;99.90;;;;;;5069965;28;20222;-86
2021/03/22 02:53:31;;;;;;;2.50;1.98;;;3.10;99.90;;;;;;5069151;28;20199;-87
2021/03/22 02:56:04;;;;;;;5.80;2.47;;;3.10;99.90;;;;;;5067726;28;20286;-87
2021/03/22 02:58:33;;;;;;;8.57;2.20;;;3.10;99.90;;;;;;5063571;28;20218;-87
2021/03/22 03:01:05;;;;;;;4.97;1.90;;;3.10;99.90;;;;;;5062849;28;20583;-87
2021/03/22 03:03:33;;;;;;;3.47;2.35;;;3.00;99.90;;;;;;5070547;28;20187;-86
2021/03/22 03:06:00;;;;;;;3.05;2.15;;;2.90;99.90;;;;;;5071812;28;20211;-86
2021/03/22 03:08:30;;;;;;;7.43;2.40;;;3.00;99.90;;;;;;5070449;28;20226;-86
2021/03/22 03:10:57;;;;;;;3.97;2.22;;;3.00;99.90;;;;;;5073385;28;20199;-86
2021/03/22 03:13:23;;;;;;;3.83;1.88;;;2.70;99.90;;;;;;5063455;28;20685;-86
2021/03/22 03:15:50;;;;;;;5.10;2.30;;;2.90;99.90;;;;;;5063747;28;20206;-86
2021/03/22 03:18:16;;;;;;;6.90;2.15;;;3.00;99.90;;;;;;5064420;28;20230;-86
2021/03/22 03:20:42;;;;;;;9.07;2.75;;;3.00;99.90;;;;;;5061040;28;20223;-86
2021/03/22 03:23:09;;;;;;;3.90;2.17;;;3.00;99.90;;;;;;5061531;28;20560;-86
2021/03/22 03:25:35;;;;;;;9.23;2.60;;;2.90;99.90;;;;;;5061255;28;20234;-86
2021/03/22 03:28:01;;;;;;;6.45;2.67;;;2.90;99.90;;;;;;5061162;28;20587;-86
2021/03/22 03:30:30;;;;;;;11.00;3.13;;;2.80;99.90;;;;;;5061041;28;20199;-86
2021/03/22 03:32:58;;;;;;;9.20;2.88;;;2.70;99.90;;;;;;5061974;28;20305;-86
2021/03/22 03:35:26;;;;;;;6.63;3.08;;;2.60;99.90;;;;;;5061920;28;20203;-87
2021/03/22 03:37:53;;;;;;;4.55;2.67;;;2.60;99.90;;;;;;5061727;28;20229;-86
2021/03/22 03:40:22;;;;;;;8.23;2.75;;;2.50;99.90;;;;;;5061554;28;20245;-86
2021/03/22 03:42:48;;;;;;;7.65;3.05;;;2.50;99.90;;;;;;5065783;28;20257;-86
2021/03/22 03:45:17;;;;;;;4.20;3.03;;;2.50;99.90;;;;;;5061887;28;20203;-86
2021/03/22 03:47:44;;;;;;;8.25;2.70;;;2.50;99.90;;;;;;5060819;28;20234;-87
2021/03/22 03:50:14;;;;;;;5.50;3.22;;;2.50;99.90;;;;;;5057362;28;20207;-87
2021/03/22 03:52:40;;;;;;;14.95;3.53;;;2.50;99.90;;;;;;5058120;28;20198;-87
2021/03/22 03:55:08;;;;;;;15.05;2.92;;;2.50;99.90;;;;;;5057741;28;20214;-87
2021/03/22 03:57:35;;;;;;;6.35;2.90;;;2.40;99.90;;;;;;5057406;28;20219;-87
2021/03/22 04:00:03;;;;;;;4.25;3.15;;;2.40;99.90;;;;;;5057554;28;20235;-87
2021/03/22 04:02:30;;;;;;;7.75;3.30;;;2.20;99.90;;;;;;5058163;28;20206;-87
2021/03/22 04:04:56;;;;;;;6.82;2.72;;;2.40;99.90;;;;;;5062178;28;20203;-86
2021/03/22 04:07:22;;;;;;;5.90;2.17;;;2.40;99.90;;;;;;5070744;28;20546;-87
2021/03/22 04:09:48;;;;;;;5.97;3.47;;;2.30;99.90;;;;;;5071457;28;20445;-87
2021/03/22 04:12:14;;;;;;;7.25;2.63;;;2.30;99.90;;;;;;5070668;28;20435;-87
2021/03/22 04:14:41;;;;;;;7.65;2.40;;;2.20;99.90;;;;;;5069651;28;20436;-87
2021/03/22 04:17:07;;;;;;;5.93;2.80;;;2.40;99.90;;;;;;5068671;28;20231;-87
2021/03/22 04:19:34;;;;;;;5.15;2.80;;;2.30;99.90;;;;;;5068128;28;20274;-87
2021/03/22 04:22:00;;;;;;;9.82;3.38;;;2.40;99.90;;;;;;5060942;28;20658;-87
2021/03/22 04:24:26;;;;;;;4.68;2.42;;;2.50;99.90;;;;;;5060352;28;20200;-87
2021/03/22 04:26:52;;;;;;;5.15;2.50;;;2.60;99.90;;;;;;5058283;28;20568;-86
2021/03/22 04:29:18;;;;;;;5.28;2.50;;;2.40;99.90;;;;;;5058779;28;20206;-86
2021/03/22 04:31:45;;;;;;;2.67;2.40;;;2.40;99.90;;;;;;5058326;28;20602;-86
2021/03/22 04:34:12;;;;;;;7.20;2.65;;;2.40;99.90;;;;;;5058650;28;20203;-85
2021/03/22 04:36:39;;;;;;;6.93;3.05;;;2.40;99.90;;;;;;5057842;28;20576;-85
2021/03/22 04:39:06;;;;;;;7.85;3.50;;;2.10;99.90;;;;;;5060516;28;20366;-85
2021/03/22 04:41:33;;;;;;;7.82;3.05;;;2.10;99.90;;;;;;5067817;28;20451;-85
2021/03/22 04:43:59;;;;;;;5.43;3.03;;;2.10;99.90;;;;;;5061198;28;20306;-86
2021/03/22 04:46:25;;;;;;;10.52;3.45;;;2.10;99.90;;;;;;5060835;28;20237;-85
2021/03/22 04:48:52;;;;;;;5.07;4.20;;;2.10;99.90;;;;;;5065090;28;20226;-86
2021/03/22 04:51:18;;;;;;;10.98;3.05;;;2.10;99.90;;;;;;5063232;28;20210;-86
2021/03/22 04:53:44;;;;;;;7.28;3.40;;;2.10;99.90;;;;;;5058340;28;20207;-86
2021/03/22 04:56:13;;;;;;;5.35;3.60;;;2.40;99.90;;;;;;5062475;28;20233;-86
2021/03/22 04:58:40;;;;;;;10.88;3.55;;;2.10;99.90;;;;;;5070436;28;20223;-86
2021/03/22 05:01:08;;;;;;;6.13;3.75;;;2.10;99.90;;;;;;5062580;28;20302;-86
2021/03/22 05:03:35;;;;;;;14.85;4.07;;;2.10;99.90;;;;;;5060307;28;20237;-86
2021/03/22 05:06:02;;;;;;;7.25;3.10;;;2.10;99.90;;;;;;5061074;28;20448;-85
2021/03/22 05:08:28;;;;;;;9.23;3.97;;;2.00;99.90;;;;;;5059576;28;20421;-85
2021/03/22 05:10:58;;;;;;;6.90;3.08;;;2.00;99.90;;;;;;5058475;28;20617;-85
2021/03/22 05:13:25;;;;;;;8.32;3.58;;;1.90;99.90;;;;;;5057989;28;20226;-85
2021/03/22 05:15:52;;;;;;;7.80;3.35;;;2.00;99.90;;;;;;5056916;28;20497;-85
2021/03/22 05:18:20;;;;;;;8.75;4.85;;;2.10;99.90;;;;;;5063918;22;20223;-78
2021/03/22 05:20:49;;;;;;;10.98;4.13;;;2.00;99.90;;;;;;5043133;28;20519;-78
2021/03/22 05:23:18;;;;;;;13.15;3.65;;;2.10;99.90;;;;;;5049109;28;20204;-78
2021/03/22 05:25:45;;;;;;;10.55;4.25;;;2.00;99.90;;;;;;5046634;28;20203;-78
2021/03/22 05:28:13;;;;;;;12.68;4.25;;;2.00;99.90;;;;;;5048656;28;20220;-78
2021/03/22 05:30:40;;;;;;;11.35;3.42;;;1.90;99.90;;;;;;5050941;28;20207;-78
2021/03/22 05:33:08;;;;;;;9.77;4.45;;;1.90;99.90;;;;;;5056756;28;20218;-78
2021/03/22 05:35:35;;;;;;;13.07;4.38;;;2.00;99.90;;;;;;5057495;28;20222;-78
2021/03/22 05:38:02;;;;;;;16.70;4.38;;;2.10;99.90;;;;;;5057201;28;20263;-78
2021/03/22 05:40:34;;;;;;;7.43;4.05;;;2.10;99.90;;;;;;5056551;28;20230;-79
2021/03/22 05:43:08;;;;;;;10.50;4.70;;;2.20;99.90;;;;;;5047923;28;20195;-77
2021/03/22 05:46:04;;;;;;;12.15;5.00;;;2.20;99.90;;;;;;5048363;28;20187;-79
2021/03/22 05:48:53;;;;;;;17.25;6.10;;;2.20;99.90;;;;;;5046468;28;20223;-79
2021/03/22 05:51:32;;;;;;;11.35;4.30;;;2.20;99.90;;;;;;5049225;28;20188;-79
2021/03/22 05:54:05;;;;;;;10.18;4.40;;;2.20;99.90;;;;;;5047509;28;20211;-79
2021/03/22 05:56:39;;;;;;;9.35;4.40;;;2.10;99.90;;;;;;5050529;28;20223;-79
2021/03/22 05:59:17;;;;;;;10.73;4.38;;;2.10;99.90;;;;;;5046201;28;20227;-79
2021/03/22 06:01:47;;;;;;;14.32;5.85;;;2.20;99.90;;;;;;5044804;28;20210;-79
2021/03/22 06:04:22;;;;;;;5.43;4.00;;;2.20;99.90;;;;;;5047705;28;20700;-79
2021/03/22 06:06:49;;;;;;;16.13;4.68;;;2.30;99.90;;;;;;5045516;28;20199;-79
2021/03/22 06:09:30;;;;;;;9.55;4.22;;;2.50;99.90;;;;;;5047668;28;20257;-78
2021/03/22 06:12:01;;;;;;;7.32;4.05;;;2.40;99.90;;;;;;5045671;28;20184;-78
2021/03/22 06:14:38;;;;;;;13.80;4.97;;;2.40;99.90;;;;;;5044487;28;20187;-78
2021/03/22 06:17:12;;;;;;;7.30;4.60;;;2.40;99.90;;;;;;5046583;28;20188;-79
2021/03/22 06:19:45;;;;;;;12.60;4.35;;;2.40;99.90;;;;;;5044135;28;20234;-79
2021/03/22 06:22:19;;;;;;;11.40;4.60;;;2.40;99.90;;;;;;5041018;28;20195;-79
2021/03/22 06:24:46;;;;;;;11.55;4.15;;;2.40;99.90;;;;;;5040746;28;20183;-78
2021/03/22 06:27:15;;;;;;;12.60;4.50;;;2.50;99.90;;;;;;5039533;28;20220;-80
2021/03/22 06:29:43;;;;;;;12.02;5.47;;;2.60;99.90;;;;;;5037078;28;20199;-80
2021/03/22 06:32:17;;;;;;;10.43;4.13;;;2.60;99.90;;;;;;5037779;28;20204;-80
2021/03/22 06:34:48;;;;;;;13.18;4.25;;;2.60;99.90;;;;;;5041438;28;20198;-79
2021/03/22 06:37:16;;;;;;;12.48;4.68;;;2.70;99.90;;;;;;5041723;28;20250;-79
2021/03/22 06:39:43;;;;;;;5.90;3.78;;;2.80;99.90;;;;;;5040509;28;20212;-79
2021/03/22 06:42:23;;;;;;;10.10;4.10;;;2.90;99.90;;;;;;5051433;28;20291;-80
2021/03/22 06:44:51;;;;;;;8.50;3.92;;;3.10;99.90;;;;;;5056694;28;20191;-79
2021/03/22 06:47:25;;;;;;;7.72;3.60;;;3.10;99.90;;;;;;5056626;28;20230;-78
2021/03/22 06:49:54;;;;;;;17.90;5.15;;;3.20;99.90;;;;;;5056376;28;20191;-79
2021/03/22 06:52:22;;;;;;;5.90;3.55;;;3.30;99.90;;;;;;5046093;28;20212;-79
2021/03/22 06:54:51;;;;;;;12.30;5.25;;;3.40;99.90;;;;;;5043078;28;20207;-78
2021/03/22 06:57:20;;;;;;;8.15;3.70;;;3.40;99.90;;;;;;5050155;28;20214;-78
2021/03/22 07:00:11;;;;;;;12.32;4.25;;;3.50;99.90;;;;;;5048556;28;20204;-79
2021/03/22 07:02:44;;;;;;;16.60;4.35;;;3.60;99.90;;;;;;5047165;28;20238;-80
2021/03/22 07:05:22;;;;;;;8.77;3.13;;;3.50;99.90;;;;;;5040193;28;20684;-79
2021/03/22 07:07:53;;;;;;;4.30;3.28;;;3.60;99.90;;;;;;5036247;28;20228;-79
2021/03/22 07:10:19;;;;;;;8.07;3.85;;;3.60;99.90;;;;;;5038808;28;20545;-79
2021/03/22 07:12:46;;;;;;;11.57;3.78;;;3.70;99.90;;;;;;5039795;28;20236;-79
2021/03/22 07:15:28;;;;;;;10.38;3.70;;;3.80;99.90;;;;;;5038431;28;20317;-79
2021/03/22 07:18:16;;;;;;;7.45;4.00;;;3.90;99.90;;;;;;5055572;28;20243;-79
2021/03/22 07:20:44;;;;;;;13.55;4.60;;;4.00;99.90;;;;;;5038506;28;20216;-79
2021/03/22 07:23:26;;;;;;;7.10;4.00;;;4.00;99.90;;;;;;5037221;28;20255;-79
2021/03/22 07:25:54;;;;;;;11.98;4.30;;;4.10;99.90;;;;;;5046682;28;20321;-78
2021/03/22 07:28:30;;;;;;;14.23;4.78;;;4.00;99.90;;;;;;5051646;28;20219;-78
2021/03/22 07:31:05;;;;;;;16.33;4.13;;;4.00;99.90;;;;;;5041489;28;20557;-79
2021/03/22 07:33:42;;;;;;;9.52;4.10;;;4.00;99.90;;;;;;5041575;28;20607;-78
2021/03/22 07:36:24;;;;;;;8.52;3.85;;;3.90;99.90;;;;;;5042966;28;20195;-79
2021/03/22 07:39:18;;;;;;;5.68;2.95;;;4.00;99.90;;;;;;5042725;28;20219;-79
2021/03/22 07:41:59;;;;;;;10.00;4.18;;;4.20;99.90;;;;;;5041885;28;20258;-78
2021/03/22 07:44:46;;;;;;;13.35;3.63;;;4.30;99.90;;;;;;5058173;28;20188;-79
2021/03/22 07:47:31;;;;;;;9.80;3.03;;;4.50;99.90;;;;;;5055492;28;20304;-80
2021/03/22 07:50:09;;;;;;;5.13;3.50;;;4.50;99.90;;;;;;5047356;28;20210;-80
2021/03/22 07:52:39;;;;;;;4.50;2.90;;;4.40;99.90;;;;;;5049576;28;20183;-79
2021/03/22 07:55:34;;;;;;;11.30;3.30;;;4.70;99.90;;;;;;5050165;28;20189;-80
2021/03/22 07:58:05;;;;;;;7.18;3.60;;;4.60;99.90;;;;;;5009638;28;20254;-80
2021/03/22 08:00:41;;;;;;;6.95;4.03;;;4.60;99.90;;;;;;5048074;28;20212;-80
2021/03/22 08:03:23;;;;;;;9.10;4.10;;;4.80;99.90;;;;;;5047064;28;20520;-80
2021/03/22 08:06:12;;;;;;;9.48;4.00;;;4.80;99.90;;;;;;5042415;28;20233;-79
2021/03/22 08:08:46;;;;;;;6.45;3.92;;;4.90;99.90;;;;;;5045208;28;20234;-80
2021/03/22 08:11:19;;;;;;;10.07;3.17;;;5.00;99.90;;;;;;5041761;28;20188;-79
2021/03/22 08:13:51;;;;;;;7.22;3.67;;;5.20;99.90;;;;;;5044478;28;20184;-80
2021/03/22 08:16:45;;;;;;;6.47;3.17;;;5.40;99.90;;;;;;5044810;28;20188;-80
2021/03/22 08:19:19;;;;;;;5.15;4.55;;;5.50;99.90;;;;;;5047492;28;20231;-81
2021/03/22 08:21:54;;;;;;;7.80;4.80;;;5.50;99.90;;;;;;5047757;28;20207;-81
2021/03/22 08:24:37;;;;;;;5.20;3.53;;;5.50;99.90;;;;;;5050929;28;20203;-79
2021/03/22 08:27:12;;;;;;;5.00;3.08;;;5.60;99.90;;;;;;5041490;28;20195;-80
2021/03/22 08:29:45;;;;;;;5.00;3.38;;;5.60;99.90;;;;;;5041910;28;20187;-79
2021/03/22 08:32:29;;;;;;;8.43;3.88;;;5.60;99.90;;;;;;5044826;28;20184;-79
2021/03/22 08:35:02;;;;;;;2.58;2.38;;;5.80;99.90;;;;;;5043209;28;20202;-79
2021/03/22 08:37:37;;;;;;;4.47;3.60;;;5.90;99.90;;;;;;5043708;28;20228;-80
2021/03/22 08:40:07;;;;;;;4.75;3.58;;;6.00;99.90;;;;;;5042031;28;20190;-79
2021/03/22 08:42:40;;;;;;;4.22;2.75;;;6.20;99.90;;;;;;5040273;28;20590;-80
2021/03/22 08:45:15;;;;;;;4.72;2.47;;;6.20;99.90;;;;;;5040484;28;20192;-78
2021/03/22 08:47:50;;;;;;;4.00;2.20;;;6.30;99.90;;;;;;5038588;28;20227;-79
2021/03/22 08:50:20;;;;;;;3.42;2.40;;;6.40;99.90;;;;;;5037768;28;20211;-78
2021/03/22 08:52:59;;;;;;;5.25;3.95;;;6.30;99.90;;;;;;5038189;28;20243;-79
2021/03/22 08:55:28;;;;;;;8.05;3.35;;;6.30;99.90;;;;;;5038097;28;20188;-78
2021/03/22 08:58:00;;;;;;;3.72;2.28;;;6.30;99.90;;;;;;5039435;28;20790;-79
2021/03/22 09:00:37;;;;;;;6.32;2.53;;;6.10;99.90;;;;;;5039821;28;20209;-79
2021/03/22 09:03:21;;;;;;;7.05;3.20;;;6.40;99.90;;;;;;5038598;28;20188;-79
2021/03/22 09:06:07;;;;;;;5.13;3.30;;;6.50;99.90;;;;;;5038724;28;20183;-79
2021/03/22 09:08:36;;;;;;;9.52;3.25;;;6.40;99.90;;;;;;5049757;28;20219;-78
2021/03/22 09:11:16;;;;;;;7.10;3.15;;;6.50;99.90;;;;;;5054873;28;20188;-79
2021/03/22 09:13:52;;;;;;;4.55;3.97;;;6.80;99.90;;;;;;5058949;28;20192;-79
2021/03/22 09:16:38;;;;;;;7.38;2.92;;;6.90;99.90;;;;;;5047072;28;20184;-80
2021/03/22 09:19:31;;;;;;;5.05;2.92;;;6.70;99.90;;;;;;5043386;28;20235;-78
2021/03/22 09:22:45;;;;;;;6.88;3.25;;;6.80;99.90;;;;;;5028022;28;20231;-79
2021/03/22 09:25:47;;;;;;;1.77;1.67;;;6.80;99.90;;;;;;5044945;28;20188;-79
2021/03/22 09:28:30;;;;;;;3.30;2.05;;;6.80;99.90;;;;;;5048011;28;20273;-80
2021/03/22 09:30:59;;;;;;;6.32;3.00;;;6.90;99.90;;;;;;5046139;28;20218;-79
2021/03/22 09:33:48;;;;;;;8.07;3.00;;;7.00;99.90;;;;;;5039271;28;20204;-79
2021/03/22 09:36:32;;;;;;;5.65;3.08;;;7.00;99.90;;;;;;5038886;28;20203;-79
2021/03/22 09:39:00;;;;;;;7.93;2.70;;;6.90;99.90;;;;;;5038718;28;20605;-78
2021/03/22 09:41:59;;;;;;;10.18;2.40;;;6.90;99.90;;;;;;5038838;28;20223;-79
2021/03/22 09:44:27;;;;;;;4.88;2.90;;;7.20;99.90;;;;;;5038742;28;20184;-79
2021/03/22 09:47:17;;;;;;;3.05;2.10;;;7.60;99.90;;;;;;5037567;28;20625;-79
2021/03/22 09:50:14;;;;;;;3.65;3.35;;;7.40;99.90;;;;;;5037085;28;20204;-80
2021/03/22 09:53:02;;;;;;;6.10;2.95;;;7.40;99.90;;;;;;5040591;28;20526;-80
2021/03/22 09:55:42;;;;;;;4.68;2.53;;;7.40;99.90;;;;;;5040357;28;20215;-79
2021/03/22 09:58:25;;;;;;;7.15;2.60;;;7.60;99.90;;;;;;5040082;28;20224;-80
2021/03/22 10:00:56;;;;;;;10.00;2.75;;;7.60;99.90;;;;;;5039871;28;20704;-80
2021/03/22 10:04:10;;;;;;;7.75;1.85;;;7.60;99.90;;;;;;5039611;28;20184;-81
2021/03/22 10:07:07;;;;;;;1.35;1.25;;;7.60;99.90;;;;;;5042070;28;20203;-79
2021/03/22 10:09:41;;;;;;;8.00;2.28;;;7.50;99.90;;;;;;5036258;28;20231;-79
2021/03/22 10:12:16;;;;;;;3.38;1.77;;;7.40;99.90;;;;;;5040452;28;20219;-80
2021/03/22 10:14:46;;;;;;;4.45;1.95;;;7.40;99.90;;;;;;5039557;28;20199;-80
2021/03/22 10:17:28;;;;;;;3.63;1.95;;;7.50;99.90;;;;;;5054329;28;20271;-79
2021/03/22 10:20:05;;;;;;;7.57;2.42;;;7.40;99.90;;;;;;5057103;28;20196;-80
2021/03/22 10:22:38;;;;;;;2.42;1.60;;;7.50;99.90;;;;;;5056973;28;20183;-79
2021/03/22 10:25:11;;;;;;;3.42;1.77;;;7.60;99.60;;;;;;5056484;28;20195;-79
2021/03/22 10:27:40;;;;;;;1.65;1.55;;;7.60;96.70;;;;;;5043754;28;20318;-79
2021/03/22 10:30:10;;;;;;;1.50;1.23;;;7.70;97.70;;;;;;5042628;28;20196;-80
2021/03/22 10:32:39;;;;;;;2.42;1.85;;;7.80;96.90;;;;;;5043362;28;20204;-78
2021/03/22 10:35:13;;;;;;;1.48;1.38;;;7.80;95.90;;;;;;5049289;28;20214;-79
2021/03/22 10:37:43;;;;;;;3.45;1.52;;;7.90;94.60;;;;;;5044477;28;20258;-79
2021/03/22 10:40:22;;;;;;;6.28;2.38;;;8.00;93.90;;;;;;5043637;28;20192;-79
2021/03/22 10:42:50;;;;;;;2.70;1.83;;;8.00;94.00;;;;;;5040647;28;20199;-79
2021/03/22 10:45:40;;;;;;;3.17;1.20;;;7.90;93.80;;;;;;5040140;28;20207;-79
2021/03/22 10:48:33;;;;;;;2.33;2.13;;;7.90;92.50;;;;;;5037637;28;20276;-78
2021/03/22 10:51:13;;;;;;;2.10;1.90;;;8.00;92.00;;;;;;5044684;28;20267;-78
2021/03/22 10:54:02;;;;;;;2.55;1.50;;;8.10;92.60;;;;;;5046224;28;20184;-78
2021/03/22 10:56:33;;;;;;;3.63;1.92;;;8.10;90.70;;;;;;5042630;28;20184;-80
2021/03/22 10:59:04;;;;;;;13.85;5.15;;;8.20;90.70;;;;;;5047522;28;20632;-78
2021/03/22 11:01:39;;;;;;;3.17;1.40;;;8.30;91.60;;;;;;5051764;28;20234;-78
2021/03/22 11:04:11;;;;;;;2.70;1.35;;;8.30;90.50;;;;;;5053076;28;20199;-79
2021/03/22 11:06:39;;;;;;;2.78;1.40;;;8.30;88.70;;;;;;5052155;28;20222;-79
2021/03/22 11:09:24;;;;;;;2.22;1.35;;;8.40;90.50;;;;;;5052798;28;20230;-79
2021/03/22 11:11:52;;;;;;;1.48;1.13;;;8.30;89.90;;;;;;5049651;28;20195;-80
2021/03/22 11:14:21;;;;;;;2.55;1.58;;;8.40;89.00;;;;;;5046149;28;20270;-80
2021/03/22 11:16:50;;;;;;;4.05;2.28;;;8.30;90.20;;;;;;5045153;28;20207;-79
2021/03/22 11:19:37;;;;;;;1.60;1.20;;;8.40;90.00;;;;;;5093760;23;20638;-85
2021/03/22 11:22:22;;;;;;;2.28;1.88;;;8.40;90.30;;;;;;5076946;28;20230;-85
2021/03/22 11:24:50;;;;;;;6.97;1.63;;;8.80;88.70;;;;;;5074730;28;20213;-85
2021/03/22 11:27:16;;;;;;;2.03;1.73;;;8.70;91.10;;;;;;5078581;28;20461;-85
2021/03/22 11:29:50;;;;;;;2.28;1.58;;;8.90;89.00;;;;;;5074505;28;20256;-86
2021/03/22 11:32:21;;;;;;;7.25;1.88;;;9.90;90.30;;;;;;5076648;28;20228;-85
2021/03/22 11:34:47;;;;;;;2.08;1.40;;;8.70;91.50;;;;;;5077633;28;20187;-86
2021/03/22 11:37:20;;;;;;;1.95;1.83;;;8.50;91.90;;;;;;5078331;28;20188;-85
2021/03/22 11:39:54;;;;;;;3.40;1.60;;;8.80;90.80;;;;;;5074257;28;20223;-86
2021/03/22 11:42:27;;;;;;;1.35;1.25;;;8.50;85.80;;;;;;5075530;28;20208;-86
2021/03/22 11:44:54;;;;;;;2.92;1.25;;;8.70;87.90;;;;;;5064313;28;20187;-87
2021/03/22 11:47:41;;;;;;;10.13;5.75;;;8.70;94.30;;;;;;5067380;28;20199;-86
2021/03/22 11:50:31;;;;;;;4.20;2.10;;;8.80;85.90;;;;;;5079049;28;20195;-85
2021/03/22 11:53:03;;;;;;;2.28;1.60;;;8.80;85.20;;;;;;5065975;28;20426;-86
2021/03/22 11:55:32;;;;;;;3.00;1.35;;;8.90;81.50;;;;;;5066990;28;20202;-86
2021/03/22 11:57:59;;;;;;;2.50;1.23;;;8.90;81.20;;;;;;5077926;28;20226;-85
2021/03/22 12:00:28;;;;;;;3.00;1.25;;;8.90;80.90;;;;;;5076593;28;20446;-86
2021/03/22 12:02:58;;;;;;;3.22;1.88;;;9.00;78.60;;;;;;5079857;28;20221;-86
2021/03/22 12:05:27;;;;;;;3.85;1.58;;;8.80;81.40;;;;;;5080614;28;20210;-85
2021/03/22 12:07:54;;;;;;;2.20;1.27;;;9.10;82.80;;;;;;5080008;28;20229;-86
2021/03/22 12:10:25;;;;;;;1.30;1.20;;;9.20;83.70;;;;;;5079218;28;20468;-85
2021/03/22 12:12:51;;;;;;;1.50;1.00;;;9.30;86.10;;;;;;5080628;28;20510;-86
2021/03/22 12:15:20;;;;;;;6.73;2.00;;;9.50;82.70;;;;;;5080596;28;20422;-85
2021/03/22 12:17:52;;;;;;;5.53;1.50;;;9.50;84.30;;;;;;5080620;28;20457;-86
2021/03/22 12:20:23;;;;;;;2.70;1.33;;;9.40;79.60;;;;;;5080173;28;20442;-85
2021/03/22 12:22:50;;;;;;;2.70;1.30;;;9.20;93.20;;;;;;5080202;28;20552;-85
2021/03/22 12:25:18;;;;;;;1.30;1.27;;;9.30;81.80;;;;;;5077620;28;20446;-86
2021/03/22 12:27:44;;;;;;;2.70;1.77;;;9.60;79.60;;;;;;5077167;28;20465;-85
2021/03/22 12:30:12;;;;;;;1.00;1.00;;;10.00;90.90;;;;;;5073880;28;20437;-86
2021/03/22 12:32:42;;;;;;;2.03;1.73;;;9.70;80.30;;;;;;5068178;28;20434;-86
2021/03/22 12:35:13;;;;;;;4.23;1.67;;;9.80;82.30;;;;;;5064630;28;20446;-86
2021/03/22 12:37:43;;;;;;;3.00;1.53;;;;;;;;;;5061482;28;20469;-87
2021/03/22 12:40:12;;;;;;;2.30;1.67;;;9.50;79.10;;;;;;5061029;28;20456;-86
2021/03/22 12:42:40;;;;;;;1.70;1.20;;;9.50;78.80;;;;;;5061111;28;20477;-86
2021/03/22 12:45:09;;;;;;;1.50;1.40;;;9.60;80.50;;;;;;5060774;28;20450;-86
2021/03/22 12:47:35;;;;;;;1.80;1.50;;;;;;;;;;5059779;28;20461;-86
2021/03/22 12:50:14;;;;;;;4.13;1.83;;;9.70;80.30;;;;;;5061376;28;20557;-86
2021/03/22 12:52:40;;;;;;;7.03;3.80;;;9.70;80.10;;;;;;5060516;28;20765;-86
2021/03/22 12:55:10;;;;;;;6.20;2.93;;;9.80;77.20;;;;;;5059390;28;20930;-86
2021/03/22 12:57:37;;;;;;;3.43;1.80;;;10.00;91.90;;;;;;5060843;28;20453;-86
2021/03/22 13:00:05;;;;;;;11.33;2.17;;;9.70;91.80;;;;;;5058717;28;20432;-86
2021/03/22 13:02:33;;;;;;;3.73;1.67;;;;;;;;;;5058597;28;20448;-86
2021/03/22 13:04:59;;;;;;;3.97;2.30;;;;;;;;;;5060841;28;20936;-86
2021/03/22 13:07:30;;;;;;;2.70;1.80;;;10.20;83.60;;;;;;5059352;28;20524;-87
2021/03/22 13:09:57;;;;;;;2.70;1.83;;;;;;;;;;5062137;28;20389;-86
2021/03/22 13:12:28;;;;;;;1.67;1.20;;;10.20;78.40;;;;;;5060668;28;20446;-86
2021/03/22 13:14:56;;;;;;;2.53;1.80;;;9.50;72.60;;;;;;5061039;28;20449;-86
2021/03/22 13:17:27;;;;;;;7.57;2.00;;;9.80;79.30;;;;;;5062627;28;20405;-87
2021/03/22 13:19:54;;;;;;;4.90;1.77;;;;;;;;;;5061724;28;20426;-86
2021/03/22 13:22:23;;;;;;;1.57;1.30;;;9.90;75.60;;;;;;5062337;28;20499;-86
2021/03/22 13:24:54;;;;;;;2.10;1.27;;;10.00;74.90;;;;;;5062681;28;20473;-87